LOWWEPMO

Guest
Details From LOWW - Wien Schwechat
To EPMO - MODLIN
Flight Number -
Tags generated
Created
Modified
Stats Distance 311 nm / 576 km
Max Altitude 35,000 ft / 10,668 m
Waypoints 5
Social Downloads 0
Likes 0
Share VATSIM

Download

Looking for another format? Having issues loading an existing format? Contact us
Advertisement - Login to hide

Notes

Basic altitude profile: - Ascent Rate: 2500ft/min - Ascent Speed: 250kts - Cruise Altitude: 35000ft - Cruise Speed: 420kts - Descent Rate: 1500ft/min - Descent Speed: 250kts Options: - Use NATs: yes - Use PACOTS: yes - Use low airways: yes - Use high airways: yes

Route

LOWW HLV UM984 TUSIN N744 NAVUR EPMO

ID Type Via Altitude Latitude Longitude Leg Dist Tot Dist Heading (true) Name
O LOWW APT - 0 ft / 0 m 48.11007˚ 16.56964˚ - 0 nm - Wien Schwechat
HLV NDB - 29,300 ft / 8,931 m 49.32285˚ 17.52840˚ 82 nm 82 nm 27° / 28° HOLESOV NDB
TUSIN FIX UM984 (AWY-HI) 35,000 ft / 10,668 m 49.84749˚ 18.57284˚ 51 nm 133 nm 52° / 53° -
NAVUR FIX N744 (AWY-LO) 19,500 ft / 5,944 m 51.01306˚ 19.91111˚ 86 nm 220 nm 36° / 37° -
O EPMO APT - 0 ft / 0 m 52.45111˚ 20.65178˚ 90 nm 310 nm 17° / 18° MODLIN

Altitude Profile

Advertisement - Login to hide

Weather


0- 5 10 15 20 25 30 35+ Temperature / ° C

Clouds and Precipitation
Forecast for 2017-12-11 18:00 UTC. Updated 12 minutes ago

Ground ~20,000 ft ~40,000 ft Winds

LOWW

Details ICAO LOWW (VIE)
Name Wien Schwechat
Region Austria
Timezone Europe/Vienna (UTC+1.0)
Stats Elevation 600 ft / 183 m (AMSL)
Location 48.110068° 16.569637°
Runways 2
Magnetic Variation 4.256° E

METAR

LOWW 111520Z 17022KT 9999 FEW024 BKN028 11/07 Q0995 NOSIG

Decode

TAF

TAF LOWW 111115Z 1112/1218 17022G35KT CAVOK TX12/1119Z TN07/1218Z TEMPO 1112/1202 18027G40KT PROB40 TEMPO 1117/1124 18035G50KT FM120500 29012KT 9999 -RA OVC050 TEMPO 1210/1215 24010KT CAVOK

Decode

Departure Runways

ID Width Length Bearing (true) Bearing (mag) Surface Threshold Offset Overrun Length
11 148 ft / 45 m 11,457 ft / 3,492 m 115.99° 111.73° Asphalt 0 ft / 0 m 0 ft / 0 m
16 148 ft / 45 m 11,811 ft / 3,600 m 164.23° 159.97° Asphalt 0 ft / 0 m 33 ft / 10 m
29 148 ft / 45 m 11,457 ft / 3,492 m 296.03° 291.77° Asphalt 0 ft / 0 m 0 ft / 0 m
34 148 ft / 45 m 11,811 ft / 3,600 m 344.24° 339.98° Asphalt 0 ft / 0 m 0 ft / 0 m

EPMO

Details ICAO EPMO (WMI)
Name MODLIN
Region Poland
Timezone Europe/Warsaw (UTC+1.0)
Stats Elevation 341 ft / 104 m (AMSL)
Location 52.451110° 20.651778°
Runways 1
Magnetic Variation 5.765° E

METAR

EPMO 111530Z 13007KT CAVOK 04/01 Q0994 R08/290095

Decode

TAF

TAF EPMO 111130Z 1112/1212 16010KT 9999 BKN030 PROB40 1118/1203 BKN009 BECMG 1208/1210 23012KT TEMPO 1210/1212 25015G28KT

Decode

Destination Runways

ID Width Length Bearing (true) Bearing (mag) Surface Threshold Offset Overrun Length
08 197 ft / 60 m 8,188 ft / 2,496 m 81.96° 76.19° Asphalt 0 ft / 0 m 0 ft / 0 m
26 197 ft / 60 m 8,188 ft / 2,496 m 261.99° 256.22° Asphalt 0 ft / 0 m 0 ft / 0 m